Time;durP1;ratioP1;P1;durP2;ratioP2;P2;SDS_P1;SDS_P2;PMS_P1;PMS_P2;Temp;Humidity;BMP_temperature;BMP_pressure;BME280_temperature;BME280_humidity;BME280_pressure;Samples;Min_cycle;Max_cycle;Signal;HPM_P1;HPM_P2
2022/07/04 00:02:09;;;;;;;;;;;;;;;17.26;47.92;100936.72;4960881;28;1058;-57
2022/07/04 00:04:34;;;;;;;;;;;;;;;17.12;47.45;100941.94;4962167;28;1164;-56
2022/07/04 00:07:00;;;;;;;;;;;;;;;17.20;46.85;100943.31;4960964;29;895;-57
2022/07/04 00:09:25;;;;;;;;;;;;;;;17.09;46.96;100942.47;4960220;28;1167;-56
2022/07/04 00:11:50;;;;;;;;;;;;;;;17.09;46.57;100939.72;4961063;28;2411;-57
2022/07/04 00:14:16;;;;;;;;;;;;;;;17.00;46.43;100942.19;4960159;29;1069;-56
2022/07/04 00:16:41;;;;;;;;;;;;;;;17.03;46.21;100938.91;4960912;28;1214;-57
2022/07/04 00:19:07;;;;;;;;;;;;;;;17.06;46.66;100948.53;4961170;29;1047;-56
2022/07/04 00:21:32;;;;;;;;;;;;;;;17.73;47.86;100943.84;4961495;28;1137;-56
2022/07/04 00:23:58;;;;;;;;;;;;;;;17.30;48.25;100934.25;4961286;28;1022;-56
2022/07/04 00:26:24;;;;;;;;;;;;;;;17.24;47.55;100938.94;4961523;28;1109;-55
2022/07/04 00:28:49;;;;;;;;;;;;;;;17.14;47.21;100936.16;4961127;28;1070;-53
2022/07/04 00:31:15;;;;;;;;;;;;;;;17.17;46.48;100943.88;4960156;29;1963;-55
2022/07/04 00:33:40;;;;;;;;;;;;;;;16.98;46.57;100940.81;4962072;28;1118;-56
2022/07/04 00:36:06;;;;;;;;;;;;;;;17.02;46.40;100940.00;4961353;28;1014;-56
2022/07/04 00:38:31;;;;;;;;;;;;;;;17.01;46.08;100937.50;4961045;28;983;-54
2022/07/04 00:40:57;;;;;;;;;;;;;;;17.76;46.95;100940.53;4960842;28;1094;-55
2022/07/04 00:43:26;;;;;;;;;;;;;;;17.51;48.07;100946.06;4960427;28;2818;-55
2022/07/04 00:45:51;;;;;;;;;;;;;;;17.27;47.98;100939.19;4957331;28;1054;-56
2022/07/04 00:48:18;;;;;;;;;;;;;;;17.12;47.36;100941.09;4960917;29;1097;-55
2022/07/04 00:50:44;;;;;;;;;;;;;;;17.67;47.66;100944.97;4962573;28;1253;-57
2022/07/04 00:53:10;;;;;;;;;;;;;;;17.58;48.16;100930.94;4960003;28;1915;-57
2022/07/04 00:55:36;;;;;;;;;;;;;;;17.33;48.23;100941.94;4961295;28;1189;-54
2022/07/04 00:58:01;;;;;;;;;;;;;;;17.26;47.87;100931.22;4943067;29;1181;-56
2022/07/04 01:00:26;;;;;;;;;;;;;;;17.15;47.26;100937.81;4960445;29;1039;-57
2022/07/04 01:02:52;;;;;;;;;;;;;;;17.15;46.84;100935.06;4960590;28;1173;-57
2022/07/04 01:05:17;;;;;;;;;;;;;;;17.12;46.61;100928.19;4960266;28;1070;-56
2022/07/04 01:07:43;;;;;;;;;;;;;;;17.10;46.56;100936.69;4959711;28;1106;-56
2022/07/04 01:10:09;;;;;;;;;;;;;;;17.01;46.54;100938.34;4960422;28;1066;-56
2022/07/04 01:12:34;;;;;;;;;;;;;;;17.50;47.01;100927.91;4952251;28;2494;-55
2022/07/04 01:14:59;;;;;;;;;;;;;;;17.56;48.38;100932.31;4959477;28;1030;-55
2022/07/04 01:17:25;;;;;;;;;;;;;;;17.37;47.89;100935.63;4960342;28;991;-56
2022/07/04 01:19:50;;;;;;;;;;;;;;;17.18;47.63;100929.00;4959782;29;1109;-56
2022/07/04 01:22:16;;;;;;;;;;;;;;;17.19;47.06;100926.00;4962807;28;1038;-56
2022/07/04 01:24:41;;;;;;;;;;;;;;;17.14;46.63;100926.00;4960422;28;1050;-56
2022/07/04 01:27:07;;;;;;;;;;;;;;;17.10;46.53;100924.91;4958369;28;961;-54
2022/07/04 01:29:32;;;;;;;;;;;;;;;17.99;47.07;100927.31;4960715;28;1086;-55
2022/07/04 01:32:03;;;;;;;;;;;;;;;17.54;48.06;100923.50;4963320;28;1981;-55
2022/07/04 01:34:28;;;;;;;;;;;;;;;17.30;47.63;100928.75;4961873;28;990;-55
2022/07/04 01:36:54;;;;;;;;;;;;;;;17.20;47.44;100935.06;4962358;28;1003;-56
2022/07/04 01:39:19;;;;;;;;;;;;;;;17.22;46.87;100936.47;4962165;28;1018;-57
2022/07/04 01:41:45;;;;;;;;;;;;;;;17.08;46.86;100936.16;4962327;28;2452;-57
2022/07/04 01:44:10;;;;;;;;;;;;;;;17.12;46.49;100938.34;4959272;28;927;-54
2022/07/04 01:46:36;;;;;;;;;;;;;;;17.03;46.15;100927.91;4962295;28;1014;-56
2022/07/04 01:49:01;;;;;;;;;;;;;;;16.99;46.18;100940.53;4959287;28;1160;-56
2022/07/04 01:51:26;;;;;;;;;;;;;;;18.06;47.06;100936.13;4959618;28;1927;-55
2022/07/04 01:53:52;;;;;;;;;;;;;;;17.46;47.85;100935.91;4959522;28;1154;-55
2022/07/04 01:56:17;;;;;;;;;;;;;;;17.23;47.50;100931.78;4961809;28;1204;-56
2022/07/04 01:58:43;;;;;;;;;;;;;;;17.22;46.99;100930.13;4959372;28;1074;-54
2022/07/04 02:03:52;;;;;;;;;;;;;;;17.52;47.15;100944.97;4959357;29;1018;-54
2022/07/04 02:06:17;;;;;;;;;;;;;;;17.57;47.97;100939.44;4961200;28;1042;-53
2022/07/04 02:11:27;;;;;;;;;;;;;;;17.19;47.27;100938.91;4958135;28;2691;-53
2022/07/04 02:13:52;;;;;;;;;;;;;;;17.15;46.95;100948.78;4957725;28;1097;-56
2022/07/04 02:16:18;;;;;;;;;;;;;;;17.09;46.59;100943.28;4959191;28;996;-54
2022/07/04 02:18:43;;;;;;;;;;;;;;;17.06;46.05;100943.84;4959102;29;1023;-56
2022/07/04 02:21:08;;;;;;;;;;;;;;;17.96;47.21;100944.38;4944750;29;944;-54
2022/07/04 02:23:34;;;;;;;;;;;;;;;17.36;47.99;100939.47;4958930;28;1204;-53
2022/07/04 02:25:59;;;;;;;;;;;;;;;17.16;47.65;100942.22;4959002;28;1022;-55
2022/07/04 02:28:25;;;;;;;;;;;;;;;17.15;46.79;100946.06;4958907;28;1201;-53
2022/07/04 02:30:50;;;;;;;;;;;;;;;17.09;46.73;100946.03;4958903;28;1032;-54
2022/07/04 02:33:16;;;;;;;;;;;;;;;17.01;46.36;100952.09;4958427;28;1907;-53
2022/07/04 02:35:41;;;;;;;;;;;;;;;17.54;46.74;100956.50;4958534;28;1011;-53
2022/07/04 02:38:06;;;;;;;;;;;;;;;17.49;47.70;100956.50;4959148;29;1094;-54
2022/07/04 02:40:32;;;;;;;;;;;;;;;17.22;47.47;100954.84;4962076;28;1165;-55
2022/07/04 02:42:57;;;;;;;;;;;;;;;17.21;46.91;100951.28;4955277;28;2571;-54
2022/07/04 02:45:23;;;;;;;;;;;;;;;17.13;46.49;100962.00;4958371;28;931;-55
2022/07/04 02:47:48;;;;;;;;;;;;;;;17.38;47.24;100964.75;4960041;28;1054;-53
2022/07/04 02:50:13;;;;;;;;;;;;;;;17.52;47.83;100969.72;4957756;28;1222;-55
2022/07/04 02:52:39;;;;;;;;;;;;;;;17.22;47.71;100963.09;4958529;28;1914;-52
2022/07/04 02:55:05;;;;;;;;;;;;;;;17.22;47.32;100960.34;4960180;28;1038;-55
2022/07/04 02:57:30;;;;;;;;;;;;;;;17.08;46.67;100971.88;4958027;28;956;-56
2022/07/04 02:59:55;;;;;;;;;;;;;;;17.02;46.64;100969.38;4958533;29;1094;-55
2022/07/04 03:02:21;;;;;;;;;;;;;;;18.06;47.31;100974.63;4958713;28;1026;-55
2022/07/04 03:04:46;;;;;;;;;;;;;;;17.49;47.64;100973.84;4961951;28;955;-55
2022/07/04 03:07:12;;;;;;;;;;;;;;;17.26;47.38;100975.19;4959527;28;1049;-57
2022/07/04 03:09:37;;;;;;;;;;;;;;;17.12;47.12;100977.66;4956172;28;973;-54
2022/07/04 03:12:03;;;;;;;;;;;;;;;17.12;46.92;100985.88;4958452;28;2011;-52
2022/07/04 03:14:28;;;;;;;;;;;;;;;17.05;46.56;100980.66;4958559;29;1055;-56
2022/07/04 03:16:54;;;;;;;;;;;;;;;17.07;46.36;100983.97;4963278;28;1212;-55
2022/07/04 03:19:19;;;;;;;;;;;;;;;17.00;46.16;100983.41;4958113;28;1010;-53
2022/07/04 03:21:44;;;;;;;;;;;;;;;17.54;46.99;100982.06;4964370;28;1115;-54
2022/07/04 03:24:10;;;;;;;;;;;;;;;17.44;47.53;100982.88;4963087;28;1019;-54
2022/07/04 03:26:35;;;;;;;;;;;;;;;17.18;47.37;100970.22;4962460;28;1022;-56
2022/07/04 03:29:01;;;;;;;;;;;;;;;17.09;47.21;100979.00;4957597;28;1065;-54
2022/07/04 03:31:27;;;;;;;;;;;;;;;17.02;46.84;100981.19;4969241;28;1910;-53
2022/07/04 03:33:53;;;;;;;;;;;;;;;17.95;47.16;100981.28;4970765;28;1252;-54
2022/07/04 03:36:18;;;;;;;;;;;;;;;17.39;47.85;100977.41;4973290;28;1256;-52
2022/07/04 03:38:44;;;;;;;;;;;;;;;17.22;47.67;100974.09;4976743;28;1303;-52
2022/07/04 03:41:09;;;;;;;;;;;;;;;17.24;46.83;100975.47;4978768;28;1263;-54
2022/07/04 03:43:35;;;;;;;;;;;;;;;17.21;46.55;100983.44;4971688;28;2798;-54
2022/07/04 03:46:00;;;;;;;;;;;;;;;17.08;46.59;100982.03;4969451;28;1264;-53
2022/07/04 03:48:25;;;;;;;;;;;;;;;17.06;46.31;100993.28;4968021;28;1080;-57
2022/07/04 03:50:51;;;;;;;;;;;;;;;17.75;47.49;100982.91;4976040;28;1122;-54
2022/07/04 03:53:16;;;;;;;;;;;;;;;15.15;56.41;100976.72;4979562;28;1985;-51
2022/07/04 03:55:42;;;;;;;;;;;;;;;18.58;50.13;100977.19;4964386;28;1240;-54
2022/07/04 03:58:07;;;;;;;;;;;;;;;15.96;55.78;100975.78;4968380;28;1185;-54
2022/07/04 04:00:33;;;;;;;;;;;;;;;17.12;54.97;100988.63;4964850;28;1407;-53
2022/07/04 04:03:00;;;;;;;;;;;;;;;18.57;51.57;100981.06;4969466;28;1042;-56
2022/07/04 04:05:30;;;;;;;;;;;;;;;14.63;60.12;100976.16;4964170;28;975;-54
2022/07/04 04:07:56;;;;;;;;;;;;;;;18.29;53.77;100975.94;4965967;28;1010;-54
2022/07/04 04:10:22;;;;;;;;;;;;;;;16.54;56.70;100983.22;4964467;28;1026;-56
2022/07/04 04:12:47;;;;;;;;;;;;;;;16.51;58.76;100978.25;4962490;28;2147;-55
2022/07/04 04:15:12;;;;;;;;;;;;;;;18.70;53.14;100982.38;4964333;28;1050;-55
2022/07/04 04:17:38;;;;;;;;;;;;;;;14.89;61.13;100974.56;4965310;28;1161;-54
2022/07/04 04:20:04;;;;;;;;;;;;;;;18.02;55.99;100978.19;4963922;29;1074;-57
2022/07/04 04:22:29;;;;;;;;;;;;;;;17.41;55.66;100977.94;4963926;28;948;-54
2022/07/04 04:24:54;;;;;;;;;;;;;;;15.29;59.83;100972.50;4964218;29;991;-54
2022/07/04 04:27:20;;;;;;;;;;;;;;;16.70;53.21;100979.41;4963582;28;1065;-54
2022/07/04 04:29:45;;;;;;;;;;;;;;;16.92;51.21;100975.69;4967692;28;1014;-55
2022/07/04 04:32:11;;;;;;;;;;;;;;;16.93;50.23;100988.34;4966877;28;1915;-56
2022/07/04 04:34:36;;;;;;;;;;;;;;;16.93;49.48;100988.34;4964052;29;1149;-55
2022/07/04 04:37:02;;;;;;;;;;;;;;;16.98;48.97;100971.03;4966737;28;1074;-55
2022/07/04 04:39:27;;;;;;;;;;;;;;;16.90;48.78;100975.97;4964137;28;962;-56
2022/07/04 04:41:53;;;;;;;;;;;;;;;17.60;50.09;100969.16;4963696;28;2084;-54
2022/07/04 04:44:19;;;;;;;;;;;;;;;17.30;50.77;100980.97;4969238;28;959;-55
2022/07/04 04:46:44;;;;;;;;;;;;;;;17.21;49.87;100976.03;4963398;28;1308;-56
2022/07/04 04:49:10;;;;;;;;;;;;;;;17.12;49.36;100968.59;4962793;28;1169;-53
2022/07/04 04:51:36;;;;;;;;;;;;;;;17.08;48.89;100974.63;4960315;29;1968;-56
2022/07/04 04:54:01;;;;;;;;;;;;;;;17.05;48.59;100969.66;4961707;28;1200;-54
2022/07/04 04:56:27;;;;;;;;;;;;;;;17.04;47.93;100972.69;4957136;28;978;-54
2022/07/04 04:58:52;;;;;;;;;;;;;;;17.03;47.83;100977.34;4966360;28;1034;-55
2022/07/04 05:01:18;;;;;;;;;;;;;;;16.97;47.70;100978.47;4960657;28;1066;-55
2022/07/04 05:03:43;;;;;;;;;;;;;;;16.93;47.67;100972.66;4964486;28;1011;-54
2022/07/04 05:06:09;;;;;;;;;;;;;;;16.92;47.44;100981.19;4960802;29;1137;-56
2022/07/04 05:08:34;;;;;;;;;;;;;;;16.87;47.49;100983.88;4960783;28;1050;-55
2022/07/04 05:10:59;;;;;;;;;;;;;;;16.98;47.11;100985.59;4960510;29;1074;-54
2022/07/04 05:13:25;;;;;;;;;;;;;;;16.99;47.08;100991.91;4956341;28;1993;-52
2022/07/04 05:15:51;;;;;;;;;;;;;;;17.47;48.82;100989.78;4960613;29;1070;-55
2022/07/04 05:18:16;;;;;;;;;;;;;;;17.16;48.80;100986.19;4960647;29;967;-55
2022/07/04 05:20:41;;;;;;;;;;;;;;;17.15;48.23;100981.78;4960134;29;1101;-55
2022/07/04 05:23:07;;;;;;;;;;;;;;;17.04;48.27;100989.16;4960585;29;1014;-53
2022/07/04 05:25:32;;;;;;;;;;;;;;;17.01;47.86;100993.31;4960463;29;979;-55
2022/07/04 05:27:58;;;;;;;;;;;;;;;17.32;47.70;100990.59;4960236;29;1097;-55
2022/07/04 05:30:24;;;;;;;;;;;;;;;17.59;48.67;100984.81;4960353;29;1142;-55
2022/07/04 05:32:49;;;;;;;;;;;;;;;17.29;48.53;100982.88;4959794;29;1999;-54
2022/07/04 05:35:15;;;;;;;;;;;;;;;17.21;48.20;100986.19;4960408;29;1201;-54
2022/07/04 05:37:40;;;;;;;;;;;;;;;17.12;48.17;100990.56;4943308;29;1086;-55
2022/07/04 05:40:06;;;;;;;;;;;;;;;17.17;47.40;100993.34;4966009;28;1149;-54
2022/07/04 05:42:31;;;;;;;;;;;;;;;17.04;47.43;100990.00;4966348;28;1974;-51
2022/07/04 05:44:57;;;;;;;;;;;;;;;16.99;47.58;100991.91;4959765;29;999;-53
2022/07/04 05:47:24;;;;;;;;;;;;;;;17.06;47.11;100996.03;4960970;28;1129;-54
2022/07/04 05:49:50;;;;;;;;;;;;;;;17.03;47.09;100987.53;4959523;29;1266;-50
2022/07/04 05:52:15;;;;;;;;;;;;;;;17.04;46.97;100998.25;4959965;29;1914;-54
2022/07/04 05:54:41;;;;;;;;;;;;;;;18.43;45.56;101002.88;4959865;29;947;-54
2022/07/04 05:57:06;;;;;;;;;;;;;;;18.00;47.10;101005.19;4959562;28;956;-53
2022/07/04 05:59:32;;;;;;;;;;;;;;;17.72;48.33;101010.13;4963921;28;1038;-54
2022/07/04 06:01:57;;;;;;;;;;;;;;;17.63;48.95;101012.63;4971693;28;1175;-53
2022/07/04 06:04:23;;;;;;;;;;;;;;;17.51;49.30;101021.13;4973337;28;1154;-51
2022/07/04 06:06:48;;;;;;;;;;;;;;;17.44;49.88;101023.31;4965387;28;854;-49
2022/07/04 06:09:14;;;;;;;;;;;;;;;17.39;50.42;101023.28;4963145;28;1007;-52
2022/07/04 06:11:39;;;;;;;;;;;;;;;17.36;50.58;101021.09;4966291;28;2029;-49
2022/07/04 06:14:04;;;;;;;;;;;;;;;17.30;51.03;101027.69;4960735;28;1169;-53
2022/07/04 06:16:30;;;;;;;;;;;;;;;17.26;51.18;101016.41;4959390;29;1209;-46
2022/07/04 06:18:55;;;;;;;;;;;;;;;17.35;52.12;101020.28;4959569;28;1003;-50
2022/07/04 06:21:21;;;;;;;;;;;;;;;17.22;52.50;101018.91;4964860;28;1039;-48
2022/07/04 06:23:46;;;;;;;;;;;;;;;17.22;52.47;101009.81;4959666;29;979;-50
2022/07/04 06:26:12;;;;;;;;;;;;;;;17.15;52.90;101004.56;4958605;29;1131;-48
2022/07/04 06:28:37;;;;;;;;;;;;;;;17.16;53.11;101010.91;4959033;29;1049;-48
2022/07/04 06:31:02;;;;;;;;;;;;;;;17.09;53.36;101002.91;4958720;29;1157;-50
2022/07/04 06:33:28;;;;;;;;;;;;;;;17.04;53.78;101000.16;4960176;28;1907;-50
2022/07/04 06:35:56;;;;;;;;;;;;;;;17.04;53.58;100995.50;4973538;28;1236;-53
2022/07/04 06:38:22;;;;;;;;;;;;;;;16.99;53.93;100995.47;4969342;28;1374;-53
2022/07/04 06:40:48;;;;;;;;;;;;;;;16.99;53.99;100989.97;4963483;28;1601;-49
2022/07/04 06:43:14;;;;;;;;;;;;;;;16.98;54.52;101002.06;4958101;28;2236;-53
2022/07/04 06:45:39;;;;;;;;;;;;;;;16.91;54.73;101001.50;4958774;28;924;-48
2022/07/04 06:48:05;;;;;;;;;;;;;;;16.93;54.44;101002.06;4952386;29;1124;-47
2022/07/04 06:50:33;;;;;;;;;;;;;;;16.92;54.58;101003.16;4958922;29;1043;-55
2022/07/04 06:53:00;;;;;;;;;;;;;;;16.85;55.00;101002.56;4961596;28;1910;-52
2022/07/04 06:55:25;;;;;;;;;;;;;;;16.86;54.83;101002.28;4953934;28;1046;-48
2022/07/04 06:58:00;;;;;;;;;;;;;;;16.87;55.40;101006.69;4969993;28;1199;-56
2022/07/04 07:00:25;;;;;;;;;;;;;;;16.84;55.43;101015.44;4967758;28;1237;-52
2022/07/04 07:02:51;;;;;;;;;;;;;;;16.80;55.48;101013.53;4961119;28;1129;-52
2022/07/04 07:05:16;;;;;;;;;;;;;;;16.77;55.81;101012.97;4965217;28;1241;-58
2022/07/04 07:07:41;;;;;;;;;;;;;;;16.79;55.80;101003.63;4966449;28;1181;-55
2022/07/04 07:10:07;;;;;;;;;;;;;;;16.76;55.92;101016.00;4963815;28;1185;-52
2022/07/04 07:12:33;;;;;;;;;;;;;;;16.77;56.15;101015.72;4954489;28;2388;-54
2022/07/04 07:14:58;;;;;;;;;;;;;;;16.74;56.21;101016.22;4958381;29;987;-51
2022/07/04 07:17:24;;;;;;;;;;;;;;;16.69;56.22;101012.66;4958664;29;1090;-52
2022/07/04 07:19:49;;;;;;;;;;;;;;;16.72;56.27;101012.13;4961126;28;1322;-54
2022/07/04 07:22:15;;;;;;;;;;;;;;;16.70;56.43;101015.13;4963522;28;1272;-51
2022/07/04 07:24:40;;;;;;;;;;;;;;;16.70;56.25;101017.06;4960245;28;967;-55
2022/07/04 07:27:06;;;;;;;;;;;;;;;16.80;56.37;101019.00;4956680;28;1051;-51
2022/07/04 07:29:32;;;;;;;;;;;;;;;16.94;56.13;101017.44;4958363;29;1082;-53
2022/07/04 07:31:57;;;;;;;;;;;;;;;16.95;56.38;101012.78;4958221;29;1979;-53
2022/07/04 07:34:23;;;;;;;;;;;;;;;16.87;56.52;101006.69;4957822;28;1141;-48
2022/07/04 07:36:48;;;;;;;;;;;;;;;16.89;56.29;101009.19;4957822;29;1011;-52
2022/07/04 07:39:14;;;;;;;;;;;;;;;16.86;56.12;101007.78;4956940;28;1035;-47
2022/07/04 07:41:39;;;;;;;;;;;;;;;16.82;56.17;101005.84;4957872;28;1922;-45
2022/07/04 07:44:05;;;;;;;;;;;;;;;16.78;56.51;101008.31;4958836;28;1078;-53
2022/07/04 07:46:30;;;;;;;;;;;;;;;16.75;56.39;100998.66;4956696;28;1252;-55
2022/07/04 07:48:56;;;;;;;;;;;;;;;16.80;56.54;101003.34;4963929;28;1151;-51
2022/07/04 07:51:21;;;;;;;;;;;;;;;16.75;56.56;101009.66;4958212;29;1973;-51
2022/07/04 07:53:47;;;;;;;;;;;;;;;16.78;56.32;101008.31;4963610;28;1301;-50
2022/07/04 07:56:13;;;;;;;;;;;;;;;16.75;56.61;101012.41;4966678;28;1189;-48
2022/07/04 07:58:38;;;;;;;;;;;;;;;16.75;56.70;101017.91;4965533;28;1058;-51
2022/07/04 08:01:03;;;;;;;;;;;;;;;16.72;56.78;101010.19;4964081;28;971;-53
2022/07/04 08:06:13;;;;;;;;;;;;;;;16.73;56.49;101005.53;4964939;28;1264;-49
2022/07/04 08:08:38;;;;;;;;;;;;;;;16.71;56.51;101007.72;4962392;28;1058;-55
2022/07/04 08:11:04;;;;;;;;;;;;;;;16.69;56.56;100998.91;4957648;29;1002;-51
2022/07/04 08:13:29;;;;;;;;;;;;;;;16.68;56.84;101016.50;4957685;28;2056;-51
2022/07/04 08:15:55;;;;;;;;;;;;;;;16.70;56.66;101001.38;4957324;29;1194;-54
2022/07/04 08:18:22;;;;;;;;;;;;;;;16.68;56.67;100997.28;4961296;28;1228;-49
2022/07/04 08:20:48;;;;;;;;;;;;;;;16.64;56.60;101007.97;4956025;28;955;-50
2022/07/04 08:23:14;;;;;;;;;;;;;;;16.68;56.64;101005.53;4957425;28;1145;-53
2022/07/04 08:25:39;;;;;;;;;;;;;;;16.67;56.72;101009.34;4966745;28;862;-51
2022/07/04 08:28:05;;;;;;;;;;;;;;;16.64;56.47;101005.22;4963735;28;983;-55
2022/07/04 08:30:30;;;;;;;;;;;;;;;16.61;56.59;101011.25;4962836;28;1003;-51
2022/07/04 08:32:55;;;;;;;;;;;;;;;16.64;56.57;100999.72;4961085;28;1969;-60
2022/07/04 08:35:21;;;;;;;;;;;;;;;16.60;56.64;101006.84;4961028;29;1141;-51
2022/07/04 08:37:49;;;;;;;;;;;;;;;16.65;56.25;101025.25;4961333;29;999;-51
2022/07/04 08:40:15;;;;;;;;;;;;;;;16.57;56.62;101012.88;4961071;28;967;-47
2022/07/04 08:42:40;;;;;;;;;;;;;;;16.57;56.28;101012.88;4960824;29;2073;-53
2022/07/04 08:45:06;;;;;;;;;;;;;;;16.56;56.26;101003.84;4963316;28;978;-54
2022/07/04 08:47:33;;;;;;;;;;;;;;;16.61;56.43;101011.25;4945205;29;877;-52
2022/07/04 08:50:11;;;;;;;;;;;;;;;16.59;56.12;101002.44;4960871;28;1196;-52
2022/07/04 08:52:37;;;;;;;;;;;;;;;16.55;56.19;100998.59;4960787;28;1963;-56
2022/07/04 09:00:45;;;;;;;;;;;;;;;16.54;56.13;100994.22;4960042;29;1039;-55
2022/07/04 09:03:10;;;;;;;;;;;;;;;16.50;56.51;100995.84;4943504;29;1205;-55
2022/07/04 09:05:36;;;;;;;;;;;;;;;16.55;56.06;100984.84;4966389;28;952;-56
2022/07/04 09:08:02;;;;;;;;;;;;;;;16.54;56.38;100983.22;4962935;28;1002;-54
2022/07/04 09:10:27;;;;;;;;;;;;;;;16.53;56.17;100976.06;4960041;28;991;-56
2022/07/04 09:12:53;;;;;;;;;;;;;;;16.50;56.29;100982.94;4961698;28;2528;-54
2022/07/04 09:15:18;;;;;;;;;;;;;;;16.55;56.27;100976.63;4960457;28;987;-55
2022/07/04 09:17:44;;;;;;;;;;;;;;;16.53;56.40;100981.56;4960193;28;991;-51
2022/07/04 09:20:13;;;;;;;;;;;;;;;16.52;56.20;100988.16;4960165;29;995;-52
2022/07/04 09:22:38;;;;;;;;;;;;;;;16.52;56.32;100977.16;4964624;28;986;-52
2022/07/04 09:25:05;;;;;;;;;;;;;;;16.53;56.33;100981.56;4962634;28;999;-54
2022/07/04 09:27:31;;;;;;;;;;;;;;;16.51;56.17;100978.25;4960770;29;1039;-54
2022/07/04 09:29:56;;;;;;;;;;;;;;;16.53;56.28;100976.91;4962725;28;1212;-54
2022/07/04 09:32:37;;;;;;;;;;;;;;;16.48;56.20;100987.03;4960240;29;1887;-55
2022/07/04 09:35:03;;;;;;;;;;;;;;;16.46;56.37;100978.25;4961104;28;1153;-54
2022/07/04 09:37:33;;;;;;;;;;;;;;;16.49;56.59;100984.00;4959174;28;959;-54
2022/07/04 09:39:58;;;;;;;;;;;;;;;16.52;56.49;100980.75;4959895;29;955;-56
2022/07/04 09:42:24;;;;;;;;;;;;;;;16.53;56.23;100973.34;4959706;28;1946;-54
2022/07/04 09:44:49;;;;;;;;;;;;;;;16.52;56.49;100977.16;4963598;28;936;-55
2022/07/04 09:47:24;;;;;;;;;;;;;;;16.53;56.27;100979.63;4960692;28;811;-55
2022/07/04 09:49:57;;;;;;;;;;;;;;;16.56;56.25;100983.78;4960041;28;1111;-54
2022/07/04 09:52:23;;;;;;;;;;;;;;;16.51;56.22;100975.50;4963225;28;1974;-54
2022/07/04 09:54:48;;;;;;;;;;;;;;;16.55;56.40;100973.88;4961442;28;1081;-54
2022/07/04 09:57:14;;;;;;;;;;;;;;;16.55;56.41;100982.13;4959449;28;1093;-55
2022/07/04 09:59:39;;;;;;;;;;;;;;;16.53;56.36;100973.34;4945986;28;1569;-55
2022/07/04 10:02:11;;;;;;;;;;;;;;;16.55;56.33;100976.63;4967121;28;983;-55
2022/07/04 10:04:43;;;;;;;;;;;;;;;16.53;56.47;100970.59;4967719;28;1032;-55
2022/07/04 10:07:09;;;;;;;;;;;;;;;16.55;56.17;100971.13;4964340;28;1066;-54
2022/07/04 10:09:34;;;;;;;;;;;;;;;16.53;56.16;100973.34;4962795;28;1008;-55
2022/07/04 10:12:01;;;;;;;;;;;;;;;16.49;56.38;100970.28;4954360;28;1984;-55
2022/07/04 10:14:27;;;;;;;;;;;;;;;16.53;56.37;100971.41;4953667;29;979;-55
2022/07/04 10:16:52;;;;;;;;;;;;;;;16.54;56.11;100969.50;4959510;28;1205;-55
2022/07/04 10:19:17;;;;;;;;;;;;;;;16.52;56.17;100977.16;4942718;29;1063;-55
2022/07/04 10:21:43;;;;;;;;;;;;;;;16.53;56.27;100973.34;4959333;29;1180;-55
2022/07/04 10:24:08;;;;;;;;;;;;;;;16.50;56.36;100973.88;4941974;29;886;-55
2022/07/04 10:26:34;;;;;;;;;;;;;;;16.51;56.47;100970.00;4964498;28;1078;-55
2022/07/04 10:28:59;;;;;;;;;;;;;;;16.50;56.51;100977.44;4958781;28;988;-55
2022/07/04 10:31:26;;;;;;;;;;;;;;;16.50;56.64;100977.44;4967311;28;1967;-55
2022/07/04 10:33:52;;;;;;;;;;;;;;;16.49;56.55;100972.22;4941916;29;992;-55
2022/07/04 10:36:21;;;;;;;;;;;;;;;16.53;56.70;100982.38;4962508;28;866;-56
2022/07/04 10:38:53;;;;;;;;;;;;;;;16.51;56.53;100973.59;4959246;29;1170;-56
2022/07/04 10:41:23;;;;;;;;;;;;;;;16.50;56.39;100979.38;4958769;29;1542;-57
2022/07/04 10:43:48;;;;;;;;;;;;;;;16.50;56.44;100982.94;4957450;29;1110;-58
2022/07/04 10:46:14;;;;;;;;;;;;;;;16.50;56.40;100968.38;4959043;29;1034;-57
2022/07/04 10:48:53;;;;;;;;;;;;;;;16.49;56.70;100978.53;4958415;28;1161;-55
2022/07/04 10:51:44;;;;;;;;;;;;;;;16.50;56.52;100971.13;4969539;28;1007;-55
2022/07/04 10:54:10;;;;;;;;;;;;;;;16.47;56.57;100972.50;4970013;28;1149;-55
2022/07/04 10:56:45;;;;;;;;;;;;;;;16.50;56.72;100973.88;4955646;29;1099;-61
2022/07/04 10:59:13;;;;;;;;;;;;;;;16.45;56.57;100965.59;4957007;28;1110;-56
2022/07/04 11:01:39;;;;;;;;;;;;;;;16.45;56.80;100960.94;4958158;28;1462;-61
2022/07/04 11:04:04;;;;;;;;;;;;;;;16.46;56.56;100967.28;4947742;28;1174;-64
2022/07/04 11:06:33;;;;;;;;;;;;;;;16.46;56.58;100961.78;4960754;28;995;-62
2022/07/04 11:09:17;;;;;;;;;;;;;;;16.47;56.62;100961.50;4958901;29;1145;-64
2022/07/04 11:11:57;;;;;;;;;;;;;;;16.43;56.55;100960.38;4959308;28;1958;-65
2022/07/04 11:14:34;;;;;;;;;;;;;;;16.45;56.65;100962.88;4958634;28;1122;-64
2022/07/04 11:16:59;;;;;;;;;;;;;;;16.42;56.35;100961.47;4957048;29;1050;-61
2022/07/04 11:19:25;;;;;;;;;;;;;;;16.43;56.52;100961.22;4964615;28;1058;-60
2022/07/04 11:21:50;;;;;;;;;;;;;;;16.43;56.46;100952.97;4958224;28;983;-61
2022/07/04 11:24:16;;;;;;;;;;;;;;;16.42;56.44;100956.00;4958054;29;1007;-61
2022/07/04 11:26:41;;;;;;;;;;;;;;;16.39;56.63;100953.78;4960856;28;960;-55
2022/07/04 11:29:06;;;;;;;;;;;;;;;16.42;56.67;100956.84;4958229;29;1031;-54
2022/07/04 11:31:35;;;;;;;;;;;;;;;16.39;56.52;100946.38;4958316;29;1977;-55
2022/07/04 11:34:01;;;;;;;;;;;;;;;16.37;56.54;100948.56;4958138;29;1097;-56
2022/07/04 11:36:26;;;;;;;;;;;;;;;16.41;56.73;100949.69;4958592;28;1149;-56
2022/07/04 11:38:53;;;;;;;;;;;;;;;16.40;56.63;100947.22;4958332;28;947;-57
2022/07/04 11:47:08;;;;;;;;;;;;;;;16.40;56.58;100949.97;4954509;29;979;-55
2022/07/04 11:49:34;;;;;;;;;;;;;;;16.39;56.40;100946.38;4957455;29;1158;-56
2022/07/04 11:51:59;;;;;;;;;;;;;;;16.38;56.57;100947.47;4958086;29;1957;-54
2022/07/04 11:54:25;;;;;;;;;;;;;;;16.37;56.61;100947.75;4955502;29;1061;-55
2022/07/04 11:56:51;;;;;;;;;;;;;;;16.37;56.69;100945.81;4960348;28;1015;-56
2022/07/04 11:59:16;;;;;;;;;;;;;;;16.34;56.70;100942.78;4958936;28;1115;-57
2022/07/04 12:01:42;;;;;;;;;;;;;;;16.32;56.93;100940.31;4962165;29;1005;-55
2022/07/04 12:04:11;;;;;;;;;;;;;;;16.33;56.83;100938.41;4961914;29;1066;-55
2022/07/04 12:06:36;;;;;;;;;;;;;;;16.35;56.52;100944.44;4961982;29;1074;-56
2022/07/04 12:09:02;;;;;;;;;;;;;;;16.36;56.82;100935.94;4957710;29;1193;-56
2022/07/04 12:11:46;;;;;;;;;;;;;;;16.34;56.70;100937.28;4952388;28;1942;-56
2022/07/04 12:14:15;;;;;;;;;;;;;;;16.35;56.78;100939.75;4961259;28;1074;-56
2022/07/04 12:16:40;;;;;;;;;;;;;;;16.33;56.65;100930.16;4972387;28;1130;-55
2022/07/04 12:19:09;;;;;;;;;;;;;;;16.35;56.86;100937.03;4961517;28;1007;-54
2022/07/04 12:21:35;;;;;;;;;;;;;;;16.34;56.57;100948.25;4964013;28;1067;-56
2022/07/04 12:24:02;;;;;;;;;;;;;;;16.33;56.68;100938.41;4961075;28;1089;-54
2022/07/04 12:26:28;;;;;;;;;;;;;;;16.37;56.64;100936.78;4961552;28;1145;-58
2022/07/04 12:28:53;;;;;;;;;;;;;;;16.30;56.75;100937.03;4961525;28;1011;-54
2022/07/04 12:31:18;;;;;;;;;;;;;;;16.32;56.82;100932.06;4961345;28;940;-53
2022/07/04 12:33:53;;;;;;;;;;;;;;;16.36;56.75;100930.44;4961121;29;1910;-55
2022/07/04 12:36:19;;;;;;;;;;;;;;;16.32;56.68;100932.06;4966251;28;979;-53
2022/07/04 12:38:44;;;;;;;;;;;;;;;16.35;56.49;100930.72;4962209;28;1026;-56
2022/07/04 12:41:11;;;;;;;;;;;;;;;16.30;56.77;100931.53;4964737;28;983;-56
2022/07/04 12:43:39;;;;;;;;;;;;;;;16.31;56.65;100930.41;4963436;28;2665;-56
2022/07/04 12:46:05;;;;;;;;;;;;;;;16.34;56.71;100938.13;4960474;29;1046;-56
2022/07/04 12:48:30;;;;;;;;;;;;;;;16.30;56.74;100937.03;4961990;28;1197;-56
2022/07/04 12:51:08;;;;;;;;;;;;;;;16.24;56.94;100941.66;4960416;28;1165;-56
2022/07/04 12:53:37;;;;;;;;;;;;;;;16.47;56.66;100936.81;4947968;28;1923;-55
2022/07/04 12:56:03;;;;;;;;;;;;;;;16.54;56.49;100942.06;4959927;28;975;-56
2022/07/04 12:58:28;;;;;;;;;;;;;;;16.53;56.76;100945.88;4963025;28;1006;-55
2022/07/04 13:00:54;;;;;;;;;;;;;;;16.52;56.70;100944.22;4960334;28;975;-55
2022/07/04 13:03:19;;;;;;;;;;;;;;;16.54;56.77;100942.88;4963092;28;1100;-56